Terminal Aerodrome Forecast
Issued by NWS

Home | Current Version | Previous Version | Text Only | Print | Product List | Glossary On
Versions: 1 2 3 4 5 6 7 8 9 10 11 12 13 14 15 16 17 18 19 20 21 22 23
302
FTUS45 KGJT 151727
TAFDRO
TAF
KDRO 151727Z 1518/1618 00000KT P6SM FEW250
     FM152000 22006KT P6SM FEW250
     FM160200 04004KT P6SM SCT250
     FM161200 08004KT P6SM FEW150 SCT250=

USA.gov is the U.S. government's official web portal to all federal, state and local government web resources and services.